Startpagina
METAR-TAF:

METAR-TAF

Vliegvelden :

Wallis, Frankrijk

breedte: 13-14S, lengte: 176-10W, hoogte: 23 m

METAR: ontbreekt

Tijdstip: 13:22 (01:22 UTC)

Verwachting

Dit bericht is 2 uur en het 22 minuten geleden gemaakt, om 23:00 UTC
Verwachting geldig van 18 om 00 UTC tot 18 om 24 UTC
Wind 8 kt uit het westen
Zicht 10 km of meer
Verspreide wolken op 2000 ft
Gebroken wolken op 3500 ft
Tijdelijke
van 18 om 00 UTC tot 18 om 24 UTC
Zicht: 4000 m
Gebroken wolken op 1200 ft
Verspreide wolken op 1800 ft, Stapelwolken.
regenbuien
Kans 40% :
Tijdelijke
van 18 om 18 UTC tot 18 om 24 UTC
Zicht: 2000 m
Gebroken wolken op 1400 ft
Weinig wolken op 1500 ft, Cumulonimbus.
zware regenbuien

TAF: NLWW 172300Z 1800/1824 28008KT 9999 SCT020 BKN035 TEMPO 1800/1824 4000 SHRA BKN012 SCT018TCU PROB40 TEMPO 1818/1824 2000 +SHRA BKN014 FEW015CB

Waarnemingen en weersverwachtingen van meer dan 4000 vliegvelden (METAR en TAF).

De beschikbare stations zijn de gele en rode punten op de kaart.

Ga met uw muis naar het station om de naam te zien.

Klik dan om waarnemingen en weersverwachtingen te zien.

kaart wijzigen: klik op de groene knoppen met een zwart kruis om in te zoomen, op de groene knop met een streepje om uit te zoomen of op de groene pijlen voor aangrenzende kaarten.


METAR-TAF: